KSOP

Moore County Airport

Pinehurst/Southern Pines, North Carolina, USA
METAR KSOP 250456Z AUTO 00000KT 10SM BKN110 21/21 A3016 RMK AO2 SLP223 T02060206
Observed Flight Rules
May-25 @ 04:56 UTC (33 minutes ago) Visual Flight Rules
Visibility Clouds
10 miles
  • Broken at 11,000' AGL
Temperatures Readings
Current 21°C / 70°F
Dewpoint 21°C / 70°F
Humidity 100%
Altimeter 30.16" Hg
Pressure 1022.3 hPa
Elevation 141
METAR KSOP 250456Z AUTO 00000KT 10SM BKN110 21/21 A3016 RMK AO2 SLP223 T02060206
Observed Flight Rules
May-25 @ 04:56 UTC
(33 minutes ago)
VFR
Clouds
  • Broken at 11,000' AGL
Temperature Dewpoint
21°C / 70°F 21°C / 70°F
Humidity Altimeter Pressure
100% 30.16" Hg 1022.3 hPa